Altha, Florida
Current Conditions -  °F | °C
As of 8:53 AM on Thursday 23 Oct 2014 (Local Time) from KMAI Reporting Station
Clear Clear  
Wind Chill: 56°   Ceiling: Unl
Heat Index: 56°   Visibility: 10mi
Dew Point: 50°   Wind: 3mph
Humidity: 80%   Direction: 50°NE
Pressure: 30.12"   Gusts: NA
Location:  30.57°N, 85.13°W
Report Text: KMAI 231353Z AUTO 05003KT 10SM CLR 13/10 A3012 RMK AO2 SLP199 T01330100 $
Loading
Personal Weather Stations






























Interactive Weather Map
Tropical Storm Tracking
New forecast layout! Learn more

10-Day Weather Forecast

Advertisements
Track Severe Weather on mobile